Nearby METAR Reports

Actuele Vliegveldwaarnemingen NL (METAR).Zie KNMI uitleg METAR hier

EHAM - Amsterdam/Schiph, Netherlands
Distance from station: ONO 18km
Updated: 11/08/2020 14:55
Helder
Helder
 Wind van ONO
Wind: ONO 13 km/h
Temperatuur: 31°C
Heat Index: 33°C
Dauwpunt: 20°C
Vochtigheid: 52%
Barometer: 1014 hPa
Overzicht: Helder
Visibility: greater than 10 km
2020/08/11 12:55 EHAM 111255Z 06007KT 030V090 CAVOK 31/20 Q1014 NOSIG
EHKD - DE KOOY/DE KOOY
Updated: 11/08/2020 15:06
Gedeeltelijk bewolkt
Gedeeltelijk bewolkt
 Wind van O
Wind: O 19 km/h
Temperatuur: 31°C
Heat Index: 33°C
Dauwpunt: 20°C
Vochtigheid: 52%
Barometer: 1015 hPa
Clouds: Gedeeltelijk bewolkt
Visibility: 10 km
Cloud details: Gedeeltelijk bewolkt 11582 m
2020/08/11 13:06 EHKD 111306Z AUTO 10010KT 070V130 9999 SCT380 31/20 Q1015 BLU NOSIG
 
EHLW - LEEUWARDEN/LEEUWARDEN
Updated: 11/08/2020 14:55
Zwaar bewolkt
Zwaar bewolkt
 Wind van varies
Wind: varies 22 km/h
Temperatuur: 31°C
Heat Index: 33°C
Dauwpunt: 19°C
Vochtigheid: 49%
Barometer: 1015 hPa
Clouds: Zwaar bewolkt
Visibility: 10 km
Cloud details: Zwaar bewolkt 10058 m
2020/08/11 12:55 EHLW 111255Z AUTO VRB12KT 9999 OVC330 31/19 Q1015 BLU NOSIG
EHVK - VOLKEL/VOLKEL
Updated: 11/08/2020 14:55
Helder
Helder
 Wind van O
Wind: O 9 km/h
Temperatuur: 34°C
Dauwpunt: 17°C
Vochtigheid: 36%
Barometer: 1014 hPa
Clouds: Helder
Visibility: 10 km
2020/08/11 12:55 EHVK 111255Z AUTO 09005KT 050V140 9999 NCD 34/17 Q1014 BLU NOSIG
 
EHFS - VLISSINGEN
Updated: 11/08/2020 14:55
Gedeeltelijk bewolkt
Gedeeltelijk bewolkt
 Wind van ONO
Wind: ONO 7 km/h
Temperatuur: 26°C
Dauwpunt: 19°C
Vochtigheid: 65%
Barometer: 1014 hPa
Clouds: Gedeeltelijk bewolkt
Visibility: 6 km
2020/08/11 12:55 EHFS 111255Z AUTO 07004KT 6000 NSC 26/19 Q1014
EHEH - EINDHOVEN/EINDHOVEN
Updated: 11/08/2020 14:55
Gedeeltelijk bewolkt
Gedeeltelijk bewolkt
 Wind van O
Wind: O 13 km/h
Temperatuur: 34°C
Dauwpunt: 18°C
Vochtigheid: 39%
Barometer: 1014 hPa
Clouds: Gedeeltelijk bewolkt
Visibility: 10 km
Cloud details: Gedeeltelijk bewolkt 3962 m
2020/08/11 12:55 EHEH 111255Z AUTO 09007KT 050V160 9999 SCT130 34/18 Q1014 BLU NOSIG
 
EHGR - GILZE-RIJEN/GILZE-RIJEN
Updated: 11/08/2020 14:55
Zwaar bewolkt
Zwaar bewolkt
 Wind van varies
Wind: varies 9 km/h
Temperatuur: 34°C
Dauwpunt: 18°C
Vochtigheid: 39%
Barometer: 1014 hPa
Clouds: Zwaar bewolkt
Visibility: 10 km
Cloud details: Zwaar bewolkt 6096 m
2020/08/11 12:55 EHGR 111255Z AUTO VRB05KT 9999 OVC200 34/18 Q1014 BLU NOSIG
EHDL - ARNHEM/DEELEN
Updated: 11/08/2020 14:55
Helder
Helder
 Wind van O
Wind: O 11 km/h
Temperatuur: 34°C
Dauwpunt: 17°C
Vochtigheid: 36%
Barometer: 1014 hPa
Clouds: Helder
Visibility: 10 km
2020/08/11 12:55 EHDL 111255Z AUTO 10006KT 010V170 9999 NCD 34/17 Q1014 BLU
 
EHBK - MAASTRICHT/MAASTRICHT-AACHEN
Updated: 11/08/2020 14:55
Gedeeltelijk bewolkt
Gedeeltelijk bewolkt
 Wind van O
Wind: O 9 km/h
Temperatuur: 34°C
Dauwpunt: 16°C
Vochtigheid: 34%
Barometer: 1014 hPa
Clouds: Gedeeltelijk bewolkt
Visibility: 10 km
2020/08/11 12:55 EHBK 111255Z AUTO 08005KT 020V140 9999 NSC 34/16 Q1014 NOSIG